Time;durP1;ratioP1;P1;durP2;ratioP2;P2;SDS_P1;SDS_P2;PMS_P1;PMS_P2;Temp;Humidity;BMP_temperature;BMP_pressure;BME280_temperature;BME280_humidity;BME280_pressure;Samples;Min_cycle;Max_cycle;Signal;HPM_P1;HPM_P2
2022/09/07 00:01:00;;;;;;;18.82;10.60;;;;;;;3.30;100.00;100129.15;1702749;84;20957;-70
2022/09/07 00:03:27;;;;;;;17.37;11.18;;;;;;;3.29;100.00;100129.58;1705955;84;20957;-70
2022/09/07 00:05:54;;;;;;;19.23;12.75;;;;;;;3.25;100.00;100127.86;1706342;84;21031;-70
2022/09/07 00:08:23;;;;;;;27.20;12.53;;;;;;;3.23;100.00;100125.72;1705817;84;21767;-70
2022/09/07 00:10:53;;;;;;;17.00;10.70;;;;;;;3.23;100.00;100122.30;1706308;84;20937;-70
2022/09/07 00:13:23;;;;;;;19.37;10.05;;;;;;;3.18;100.00;100121.05;1706357;83;21442;-70
2022/09/07 00:15:50;;;;;;;22.62;10.70;;;;;;;3.14;100.00;100127.47;1706986;83;21077;-70
2022/09/07 00:18:17;;;;;;;20.55;11.95;;;;;;;3.11;100.00;100116.75;1705771;84;21001;-69
2022/09/07 00:20:44;;;;;;;23.98;12.75;;;;;;;3.08;100.00;100121.46;1706530;84;21093;-69
2022/09/07 00:23:11;;;;;;;20.32;12.10;;;;;;;3.07;100.00;100120.17;1705317;84;21004;-70
2022/09/07 00:25:38;;;;;;;23.42;12.78;;;;;;;3.07;100.00;100123.60;1706111;84;20996;-70
2022/09/07 00:28:07;;;;;;;20.48;11.78;;;;;;;3.05;100.00;100124.03;1705810;84;21020;-70
2022/09/07 00:30:34;;;;;;;19.12;10.48;;;;;;;3.04;100.00;100120.17;1686212;84;21432;-70
2022/09/07 00:33:01;;;;;;;16.97;9.03;;;;;;;3.00;100.00;100123.17;1686469;84;21350;-70
2022/09/07 00:35:28;;;;;;;16.05;10.28;;;;;;;2.96;100.00;100118.06;1706269;83;21015;-70
2022/09/07 00:37:55;;;;;;;17.87;11.15;;;;;;;2.93;100.00;100121.91;1706411;84;21023;-70
2022/09/07 00:40:22;;;;;;;18.45;11.43;;;;;;;2.90;100.00;100123.19;1706747;84;20929;-70
2022/09/07 00:42:49;;;;;;;16.73;11.12;;;;;;;2.90;100.00;100129.61;1705783;84;20949;-70
2022/09/07 00:45:19;;;;;;;17.25;10.68;;;;;;;2.90;100.00;100120.19;1706028;84;21113;-70
2022/09/07 00:48:08;;;;;;;14.93;10.68;;;;;;;2.91;100.00;100115.91;1706088;83;20968;-71
2022/09/07 00:50:38;;;;;;;14.20;10.38;;;;;;;2.91;100.00;100118.05;1681633;83;21511;-70
2022/09/07 00:53:14;;;;;;;14.50;10.68;;;;;;;2.88;100.00;100115.48;1706303;84;21064;-68
2022/09/07 00:55:42;;;;;;;15.95;10.38;;;;;;;2.87;100.00;100110.34;1707408;83;20945;-70
2022/09/07 00:58:09;;;;;;;16.12;10.40;;;;;;;2.83;100.00;100108.62;1705101;84;21454;-71
2022/09/07 01:00:36;;;;;;;15.83;9.83;;;;;;;2.76;100.00;100108.64;1706330;84;20930;-70
2022/09/07 01:03:03;;;;;;;15.90;9.38;;;;;;;2.73;100.00;100108.63;1678193;83;21018;-70
2022/09/07 01:05:44;;;;;;;16.65;9.98;;;;;;;2.70;100.00;100106.48;1676888;85;21026;-70
2022/09/07 01:08:11;;;;;;;16.95;11.18;;;;;;;2.67;100.00;100102.20;1675718;85;20986;-69
2022/09/07 01:10:38;;;;;;;14.23;9.90;;;;;;;2.62;99.96;100103.91;1676869;85;21777;-70
2022/09/07 01:13:05;;;;;;;16.62;11.40;;;;;;;2.58;99.68;100098.79;1676804;85;20974;-69
2022/09/07 01:16:17;;;;;;;15.48;9.73;;;;;;;2.54;99.54;100101.78;1676945;85;21018;-69
2022/09/07 01:19:26;;;;;;;13.72;8.83;;;;;;;2.49;99.31;100097.05;1676955;85;20970;-69
2022/09/07 01:22:27;;;;;;;18.02;9.05;;;;;;;2.40;99.09;100094.03;1677131;85;20967;-69
2022/09/07 01:25:13;;;;;;;23.02;11.93;;;;;;;2.34;99.14;100089.34;1677100;84;21373;-69
2022/09/07 01:28:04;;;;;;;21.23;11.40;;;;;;;2.30;99.29;100092.75;1676957;85;20982;-70
2022/09/07 01:30:34;;;;;;;22.20;12.60;;;;;;;2.24;99.45;100093.58;1677098;85;20999;-70
2022/09/07 01:33:41;;;;;;;22.35;12.90;;;;;;;2.23;99.96;100091.02;1677154;85;21474;-70
2022/09/07 01:36:17;;;;;;;18.92;11.08;;;;;;;2.21;100.00;100085.88;1677169;85;21482;-70
2022/09/07 01:38:55;;;;;;;20.57;11.20;;;;;;;2.20;100.00;100084.62;1677140;85;21204;-70
2022/09/07 01:41:45;;;;;;;16.67;11.03;;;;;;;2.20;100.00;100083.34;1675993;85;21476;-70
2022/09/07 01:44:21;;;;;;;17.65;10.15;;;;;;;2.21;100.00;100081.17;1677225;85;21502;-69
2022/09/07 01:47:05;;;;;;;20.05;10.90;;;;;;;2.21;100.00;100073.47;1677142;85;21574;-69
2022/09/07 01:49:47;;;;;;;15.45;9.73;;;;;;;2.19;100.00;100075.20;1677088;85;20982;-69
2022/09/07 01:52:25;;;;;;;12.75;9.40;;;;;;;2.13;100.00;100069.62;1675495;85;21270;-70
2022/09/07 01:55:15;;;;;;;17.30;10.28;;;;;;;2.08;99.84;100076.02;1671262;85;21474;-69
2022/09/07 01:57:56;;;;;;;14.35;9.03;;;;;;;2.02;99.51;100076.42;1677084;85;20986;-68
2022/09/07 02:00:23;;;;;;;18.90;10.85;;;;;;;1.96;99.65;100068.30;1674196;85;20979;-69
2022/09/07 02:02:58;;;;;;;17.45;10.08;;;;;;;1.94;99.54;100074.28;1702310;83;20933;-69
2022/09/07 02:05:32;;;;;;;15.58;8.85;;;;;;;1.89;99.43;100070.41;1716142;83;21863;-69
2022/09/07 02:08:10;;;;;;;20.45;8.90;;;;;;;1.86;99.36;100066.97;1715413;83;21007;-69
2022/09/07 02:10:44;;;;;;;14.07;9.50;;;;;;;1.82;99.32;100071.23;1716227;83;21112;-68
2022/09/07 02:13:34;;;;;;;14.10;9.58;;;;;;;1.78;99.29;100065.69;1716291;83;20992;-69
2022/09/07 02:16:09;;;;;;;21.35;11.48;;;;;;;1.75;99.37;100065.67;1716440;83;21431;-70
2022/09/07 02:18:45;;;;;;;17.02;10.55;;;;;;;1.71;99.28;100063.52;1716247;83;21136;-69
2022/09/07 02:21:15;;;;;;;17.37;11.10;;;;;;;1.67;99.22;100068.19;1695887;83;20976;-69
2022/09/07 02:23:53;;;;;;;17.73;9.60;;;;;;;1.63;99.08;100066.89;1716092;83;21089;-70
2022/09/07 02:26:21;;;;;;;20.72;10.38;;;;;;;1.60;99.06;100060.03;1716098;83;20976;-70
2022/09/07 02:28:49;;;;;;;21.90;11.25;;;;;;;1.58;99.29;100058.34;1716164;83;20990;-69
2022/09/07 02:31:16;;;;;;;15.38;9.03;;;;;;;1.55;99.41;100056.62;1716111;83;21495;-69
2022/09/07 02:33:43;;;;;;;19.67;10.78;;;;;;;1.54;99.44;100048.92;1716196;83;20980;-69
2022/09/07 02:36:11;;;;;;;17.45;10.38;;;;;;;1.52;99.38;100048.05;1716404;83;20940;-69
2022/09/07 02:38:38;;;;;;;17.27;9.55;;;;;;;1.51;99.28;100052.75;1716180;83;21008;-69
2022/09/07 02:41:05;;;;;;;15.10;9.88;;;;;;;1.49;99.16;100050.17;1716201;83;21000;-69
2022/09/07 02:43:32;;;;;;;15.65;10.38;;;;;;;1.48;99.02;100048.89;1696137;83;21127;-70
2022/09/07 02:46:22;;;;;;;18.80;11.88;;;;;;;1.44;99.16;100042.88;1716025;83;20989;-69
2022/09/07 02:49:16;;;;;;;21.73;12.30;;;;;;;1.43;99.49;100041.59;1712374;83;21041;-70
2022/09/07 02:52:03;;;;;;;18.87;11.48;;;;;;;1.42;99.74;100048.42;1716128;83;20948;-69
2022/09/07 02:54:41;;;;;;;20.82;13.55;;;;;;;1.39;99.89;100048.44;1716091;83;20985;-69
2022/09/07 02:57:38;;;;;;;18.42;11.40;;;;;;;1.40;100.00;100047.55;1716090;83;21223;-69
2022/09/07 03:00:10;;;;;;;14.75;9.83;;;;;;;1.42;100.00;100052.27;1716090;83;21027;-69
2022/09/07 03:03:05;;;;;;;15.85;10.18;;;;;;;1.42;100.00;100048.42;1716058;83;21041;-69
2022/09/07 03:05:41;;;;;;;17.90;10.98;;;;;;;1.43;100.00;100051.84;1716223;83;21059;-69
2022/09/07 03:08:23;;;;;;;16.50;10.60;;;;;;;1.43;100.00;100051.84;1716325;83;21551;-69
2022/09/07 03:10:53;;;;;;;12.95;9.18;;;;;;;1.41;100.00;100053.54;1716283;83;21186;-69
2022/09/07 03:13:27;;;;;;;16.60;9.40;;;;;;;1.37;100.00;100047.57;1716115;83;20941;-69
2022/09/07 03:15:55;;;;;;;12.82;9.03;;;;;;;1.35;100.00;100047.98;1715716;83;21063;-69
2022/09/07 03:18:24;;;;;;;16.52;10.00;;;;;;;1.33;100.00;100051.81;1716175;83;20951;-69
2022/09/07 03:20:51;;;;;;;16.20;9.90;;;;;;;1.31;100.00;100052.23;1716199;83;20932;-69
2022/09/07 03:23:18;;;;;;;20.35;10.48;;;;;;;1.30;99.84;100049.66;1716156;83;21770;-69
2022/09/07 03:25:46;;;;;;;19.55;10.98;;;;;;;1.27;99.66;100052.20;1716107;83;21466;-69
2022/09/07 03:28:13;;;;;;;18.92;10.00;;;;;;;1.25;99.59;100056.03;1715999;83;20948;-69
2022/09/07 03:30:44;;;;;;;16.65;10.30;;;;;;;1.24;99.53;100057.30;1695885;83;20945;-70
2022/09/07 03:33:14;;;;;;;18.60;11.00;;;;;;;1.23;99.99;100050.46;1716080;83;21445;-70
2022/09/07 03:35:44;;;;;;;19.48;11.85;;;;;;;1.26;100.00;100053.05;1716490;83;21152;-70
2022/09/07 03:38:11;;;;;;;25.43;11.65;;;;;;;1.32;100.00;100050.10;1716350;83;20940;-69
2022/09/07 03:40:38;;;;;;;16.12;10.68;;;;;;;1.46;100.00;100054.42;1716301;83;21441;-69
2022/09/07 03:43:05;;;;;;;25.15;10.55;;;;;;;1.66;100.00;100051.09;1716256;83;21153;-68
2022/09/07 03:45:33;;;;;;;19.73;10.28;;;;;;;1.94;100.00;100057.61;1716239;83;20936;-69
2022/09/07 03:48:00;;;;;;;16.12;11.08;;;;;;;2.27;100.00;100051.25;1716134;83;21151;-69
2022/09/07 03:50:28;;;;;;;18.55;10.80;;;;;;;2.52;100.00;100060.26;1716104;83;20988;-69
2022/09/07 03:52:55;;;;;;;14.78;10.38;;;;;;;2.75;100.00;100055.55;1716025;83;21008;-69
2022/09/07 03:55:22;;;;;;;25.97;11.25;;;;;;;2.95;100.00;100050.82;1716089;83;20984;-69
2022/09/07 03:57:49;;;;;;;20.90;10.95;;;;;;;3.13;99.18;100055.07;1716049;83;21429;-69
2022/09/07 04:00:16;;;;;;;18.65;10.90;;;;;;;3.21;97.78;100056.74;1716117;83;21148;-68
2022/09/07 04:02:44;;;;;;;22.25;11.15;;;;;;;3.21;96.54;100057.17;1712210;83;20940;-69
2022/09/07 04:05:12;;;;;;;29.37;12.07;;;;;;;3.17;95.98;100056.78;1706900;84;21000;-68
2022/09/07 04:07:39;;;;;;;17.85;9.88;;;;;;;3.17;96.01;100062.78;1706914;83;20984;-70
2022/09/07 04:10:07;;;;;;;16.05;10.35;;;;;;;3.22;96.17;100059.74;1710912;83;21046;-69
2022/09/07 04:12:34;;;;;;;16.27;10.93;;;;;;;3.39;96.22;100059.30;1711495;83;21408;-70
2022/09/07 04:15:01;;;;;;;19.02;11.22;;;;;;;3.78;96.33;100060.00;1711356;83;20960;-69
2022/09/07 04:17:29;;;;;;;14.93;10.68;;;;;;;4.26;95.57;100062.72;1711396;83;21519;-69
2022/09/07 04:19:56;;;;;;;21.00;11.25;;;;;;;4.80;94.41;100061.44;1711465;83;21039;-69
2022/09/07 04:22:22;;;;;;;15.05;10.35;;;;;;;5.35;92.58;100061.34;1706101;83;21016;-73
2022/09/07 04:24:49;;;;;;;19.73;11.57;;;;;;;5.84;90.64;100054.72;1701779;84;21074;-74
2022/09/07 04:27:16;;;;;;;21.57;11.70;;;;;;;6.32;88.54;100056.69;1701857;84;20992;-74
2022/09/07 04:29:43;;;;;;;20.17;11.70;;;;;;;6.75;86.72;100049.11;1701774;84;20956;-74
2022/09/07 04:32:10;;;;;;;20.57;12.03;;;;;;;7.15;84.57;100054.00;1701789;84;20973;-75
2022/09/07 04:34:37;;;;;;;21.87;12.07;;;;;;;7.55;82.83;100051.95;1701779;84;21016;-75
2022/09/07 04:37:04;;;;;;;24.90;15.10;;;;;;;7.93;80.84;100058.48;1701819;84;21610;-75
2022/09/07 04:39:31;;;;;;;24.32;15.15;;;;;;;8.23;79.38;100059.53;1681276;84;20968;-75
2022/09/07 04:41:58;;;;;;;20.55;13.90;;;;;;;8.38;77.80;100050.61;1702107;84;21011;-75
2022/09/07 04:44:27;;;;;;;25.60;13.40;;;;;;;8.39;76.68;100054.05;1701828;83;21056;-75
2022/09/07 04:46:54;;;;;;;20.68;13.25;;;;;;;8.34;75.97;100054.16;1701823;84;20953;-75
2022/09/07 04:49:21;;;;;;;25.17;14.70;;;;;;;8.32;75.50;100050.74;1701972;83;21108;-74
2022/09/07 04:51:47;;;;;;;30.82;15.48;;;;;;;8.29;75.33;100050.33;1701783;84;21563;-75
2022/09/07 04:54:14;;;;;;;36.60;17.45;;;;;;;8.29;75.61;100046.89;1701537;84;20996;-75
2022/09/07 04:56:41;;;;;;;36.70;16.93;;;;;;;8.32;75.74;100046.86;1702071;84;20956;-75
2022/09/07 04:59:09;;;;;;;27.10;15.55;;;;;;;8.34;75.89;100050.27;1701812;84;21576;-75
2022/09/07 05:01:36;;;;;;;34.92;16.90;;;;;;;8.39;75.85;100048.42;1701780;84;21481;-75
2022/09/07 05:04:03;;;;;;;27.95;16.85;;;;;;;8.49;75.82;100046.02;1681410;84;21064;-75
2022/09/07 05:06:30;;;;;;;35.17;19.80;;;;;;;8.59;75.64;100047.48;1657904;85;20950;-75
2022/09/07 05:08:57;;;;;;;37.83;19.37;;;;;;;8.67;75.67;100049.90;1697730;83;20989;-75
2022/09/07 05:11:24;;;;;;;29.00;19.75;;;;;;;8.78;75.66;100049.20;1715708;83;21489;-75
2022/09/07 05:13:51;;;;;;;33.33;18.40;;;;;;;8.94;75.17;100044.48;1715063;83;21104;-75
2022/09/07 05:16:22;;;;;;;26.55;16.52;;;;;;;9.03;74.79;100042.07;1715689;83;20988;-75
2022/09/07 05:18:54;;;;;;;29.35;16.12;;;;;;;9.08;74.62;100037.63;1715840;83;21101;-75
2022/09/07 05:21:24;;;;;;;29.87;16.53;;;;;;;9.11;74.23;100042.73;1716232;83;20959;-73
2022/09/07 05:23:52;;;;;;;32.67;16.37;;;;;;;9.06;74.18;100044.14;1714141;83;21630;-74
2022/09/07 05:26:21;;;;;;;21.75;14.55;;;;;;;9.03;74.21;100039.03;1713701;83;21074;-74
2022/09/07 05:28:48;;;;;;;20.45;13.13;;;;;;;8.99;74.31;100040.84;1713066;83;21030;-73
2022/09/07 05:31:18;;;;;;;18.67;12.53;;;;;;;8.93;74.18;100041.03;1714042;83;21569;-74
2022/09/07 05:33:49;;;;;;;18.82;12.40;;;;;;;8.86;74.28;100043.36;1715567;83;21415;-74
2022/09/07 05:36:16;;;;;;;22.07;13.03;;;;;;;8.77;74.36;100041.02;1714475;83;21006;-75
2022/09/07 05:38:43;;;;;;;18.92;12.00;;;;;;;8.68;74.44;100041.23;1699887;82;21125;-75
2022/09/07 05:41:18;;;;;;;19.25;12.33;;;;;;;8.60;74.86;100038.81;1696720;83;21011;-75
2022/09/07 05:43:45;;;;;;;19.52;12.23;;;;;;;8.54;75.43;100040.72;1713255;83;21154;-75
2022/09/07 05:46:12;;;;;;;20.65;13.05;;;;;;;8.51;76.05;100036.91;1714621;83;21060;-74
2022/09/07 05:48:40;;;;;;;18.67;12.28;;;;;;;8.51;76.86;100027.83;1712705;82;21535;-74
2022/09/07 05:51:07;;;;;;;22.32;13.30;;;;;;;8.54;77.01;100035.54;1713017;83;21096;-73
2022/09/07 05:53:36;;;;;;;24.40;13.05;;;;;;;8.57;77.48;100036.77;1712889;83;21499;-74
2022/09/07 05:56:05;;;;;;;20.17;13.15;;;;;;;8.63;77.48;100043.08;1685215;84;34637;-72
2022/09/07 05:58:32;;;;;;;19.40;12.80;;;;;;;8.69;77.35;100040.78;1706300;83;21037;-72
2022/09/07 06:01:05;;;;;;;23.47;13.80;;;;;;;8.73;77.51;100039.83;1692149;83;21077;-72
2022/09/07 06:03:40;;;;;;;22.23;12.00;;;;;;;8.81;77.97;100034.84;1686008;83;21125;-71
2022/09/07 06:06:18;;;;;;;18.45;11.35;;;;;;;8.91;77.77;100041.95;1718934;82;21561;-74
2022/09/07 06:08:51;;;;;;;19.77;12.25;;;;;;;9.03;77.51;100047.26;1708293;82;21085;-72
2022/09/07 06:11:24;;;;;;;17.32;11.25;;;;;;;9.15;77.66;100040.47;1736903;82;21606;-72
2022/09/07 06:13:51;;;;;;;23.35;12.73;;;;;;;9.27;77.67;100045.32;1722449;82;21080;-71
2022/09/07 06:16:20;;;;;;;19.55;12.45;;;;;;;9.37;77.48;100044.19;1703441;84;21205;-72
2022/09/07 06:18:48;;;;;;;21.20;11.73;;;;;;;9.49;77.52;100046.44;1703288;84;21598;-72
2022/09/07 06:21:21;;;;;;;18.07;12.37;;;;;;;9.62;77.13;100043.89;1695695;83;21477;-72
2022/09/07 06:23:49;;;;;;;22.80;13.10;;;;;;;9.75;76.73;100036.62;1687321;83;21112;-72
2022/09/07 06:26:17;;;;;;;17.65;12.18;;;;;;;9.89;76.56;100041.40;1703155;82;21108;-71
2022/09/07 06:28:47;;;;;;;19.02;11.48;;;;;;;10.00;76.02;100040.17;1712875;83;21046;-72
2022/09/07 06:31:17;;;;;;;20.90;11.95;;;;;;;10.11;75.85;100038.56;1704927;82;21545;-71
2022/09/07 06:33:47;;;;;;;17.07;11.25;;;;;;;10.23;75.54;100041.25;1673446;85;21096;-72
2022/09/07 06:36:18;;;;;;;17.02;10.85;;;;;;;10.35;74.98;100043.05;1724483;83;21180;-72
2022/09/07 06:38:47;;;;;;;18.37;10.65;;;;;;;10.47;74.07;100043.09;1692335;83;21238;-71
2022/09/07 06:41:20;;;;;;;15.80;9.55;;;;;;;10.57;73.04;100043.22;1692584;83;21603;-72
2022/09/07 06:43:47;;;;;;;14.15;9.60;;;;;;;10.68;72.16;100050.20;1608435;87;21105;-73
2022/09/07 06:46:17;;;;;;;19.17;9.05;;;;;;;10.84;71.21;100045.79;1643856;85;22030;-73
2022/09/07 06:48:46;;;;;;;20.55;10.70;;;;;;;10.97;70.84;100049.25;1632123;87;21054;-74
2022/09/07 06:51:18;;;;;;;17.15;9.25;;;;;;;11.11;70.63;100051.83;1658119;85;21103;-73
2022/09/07 06:53:48;;;;;;;11.85;8.73;;;;;;;11.26;70.12;100056.50;1651932;85;21866;-74
2022/09/07 06:56:17;;;;;;;11.03;7.53;;;;;;;11.39;69.15;100049.49;1701454;83;22310;-72
2022/09/07 06:58:44;;;;;;;12.53;6.90;;;;;;;11.51;67.67;100048.22;1701429;84;22147;-70
2022/09/07 07:01:14;;;;;;;12.93;6.17;;;;;;;11.63;67.09;100050.37;1720101;83;21306;-72
2022/09/07 07:03:41;;;;;;;7.30;3.47;;;;;;;11.77;66.45;100054.28;1720504;82;21495;-71
2022/09/07 07:06:08;;;;;;;10.90;4.05;;;;;;;11.90;63.78;100048.54;1730306;81;21543;-72
2022/09/07 07:08:35;;;;;;;4.78;2.40;;;;;;;12.06;60.38;100043.59;1736215;82;20987;-71
2022/09/07 07:11:07;;;;;;;3.70;2.77;;;;;;;12.27;58.37;100050.58;1733473;82;21043;-71
2022/09/07 07:13:39;;;;;;;4.85;2.42;;;;;;;12.46;57.40;100053.77;1732952;82;21099;-71
2022/09/07 07:16:15;;;;;;;8.45;2.45;;;;;;;12.62;56.07;100051.78;1733174;82;27451;-73
2022/09/07 07:18:42;;;;;;;5.22;2.33;;;;;;;12.76;55.02;100049.48;1739270;82;21269;-71
2022/09/07 07:21:12;;;;;;;2.62;1.90;;;;;;;12.91;53.88;100047.13;1743257;82;21164;-73
2022/09/07 07:23:39;;;;;;;5.60;2.40;;;;;;;13.03;53.13;100042.69;1728215;82;21092;-72
2022/09/07 07:26:13;;;;;;;9.30;2.17;;;;;;;13.14;50.71;100048.32;1733133;82;21038;-71
2022/09/07 07:28:44;;;;;;;1.90;1.55;;;;;;;13.27;50.82;100055.20;1731862;82;21033;-71
2022/09/07 07:31:12;;;;;;;3.75;1.72;;;;;;;13.39;50.19;100047.66;1732220;82;21130;-73
2022/09/07 07:33:39;;;;;;;3.30;1.80;;;;;;;13.51;49.93;100041.52;1734848;82;21011;-72
2022/09/07 07:36:24;;;;;;;3.77;1.40;;;;;;;13.62;48.71;100045.34;1714460;82;21081;-70
2022/09/07 07:38:53;;;;;;;6.30;1.40;;;;;;;13.70;46.80;100039.78;1705858;83;20992;-70
2022/09/07 07:41:22;;;;;;;2.87;2.12;;;;;;;13.76;46.45;100042.12;1702158;84;21107;-73
2022/09/07 07:43:55;;;;;;;3.20;1.82;;;;;;;13.83;46.11;100036.14;1698015;84;21184;-71
2022/09/07 07:46:22;;;;;;;5.42;2.70;;;;;;;13.93;45.79;100033.51;1698368;84;21650;-72
2022/09/07 07:48:49;;;;;;;3.17;1.82;;;;;;;14.01;45.81;100033.52;1698546;84;21067;-72
2022/09/07 07:51:16;;;;;;;3.55;1.72;;;;;;;14.08;45.31;100037.56;1698138;84;21105;-71
2022/09/07 07:53:43;;;;;;;4.15;1.70;;;;;;;14.11;45.71;100026.95;1698388;84;20961;-71
2022/09/07 07:56:10;;;;;;;2.87;1.67;;;;;;;14.13;44.54;100027.73;1698328;84;22285;-73
2022/09/07 07:58:41;;;;;;;1.67;1.50;;;;;;;14.16;44.69;100028.06;1697240;84;21095;-75
2022/09/07 08:01:10;;;;;;;3.22;2.00;;;;;;;14.22;44.51;100030.82;1697562;84;21055;-72
2022/09/07 08:03:39;;;;;;;3.02;2.10;;;;;;;14.29;44.23;100023.08;1698246;83;21076;-72
2022/09/07 08:06:12;;;;;;;8.55;3.92;;;;;;;14.35;44.25;100022.80;1697726;84;21091;-73
2022/09/07 08:08:43;;;;;;;7.83;3.83;;;;;;;14.44;44.28;100020.59;1613221;88;21271;-72
2022/09/07 08:11:17;;;;;;;9.73;2.92;;;;;;;14.54;43.85;100017.09;1638907;86;21122;-73
2022/09/07 08:13:52;;;;;;;3.55;2.20;;;;;;;14.64;43.76;100017.47;1717296;82;20982;-76
2022/09/07 08:16:27;;;;;;;4.35;2.17;;;;;;;14.74;43.45;100013.02;1737016;82;21116;-73
2022/09/07 08:19:01;;;;;;;6.05;2.20;;;;;;;14.83;43.25;100014.31;1737013;82;21487;-73
2022/09/07 08:21:30;;;;;;;6.05;2.27;;;;;;;14.92;42.46;100011.70;1695042;83;21863;-71
2022/09/07 08:23:58;;;;;;;3.90;2.40;;;;;;;14.95;41.78;100012.87;1723398;82;21026;-71
2022/09/07 08:26:26;;;;;;;4.22;2.15;;;;;;;14.97;41.77;100008.41;1700647;83;21018;-73
2022/09/07 08:28:53;;;;;;;3.50;2.25;;;;;;;14.99;41.88;99999.52;1638813;86;21086;-72
2022/09/07 08:31:20;;;;;;;4.40;1.65;;;;;;;15.04;41.67;100000.59;1653276;84;20983;-72
2022/09/07 08:33:46;;;;;;;3.42;2.25;;;;;;;15.09;41.38;99998.12;1700393;83;21272;-79
2022/09/07 08:36:16;;;;;;;9.15;2.52;;;;;;;15.13;41.36;99999.67;1667945;83;21489;-76
2022/09/07 08:38:43;;;;;;;4.70;2.20;;;;;;;15.17;40.83;99997.75;1703756;84;21073;-74
2022/09/07 08:41:56;;;;;;;3.60;1.85;;;;;;;15.19;40.13;99999.80;1658104;86;21124;-74
2022/09/07 08:44:30;;;;;;;4.20;1.87;;;;;;;15.20;40.39;99996.25;1671612;85;21113;-76
2022/09/07 08:47:38;;;;;;;3.58;1.90;;;;;;;15.22;39.90;99986.54;1708970;83;21253;-74
2022/09/07 08:50:17;;;;;;;5.65;1.60;;;;;;;15.22;39.90;99986.54;1726472;82;21059;-75
2022/09/07 08:53:13;;;;;;;5.17;4.15;;;;;;;15.22;40.19;99980.45;1738204;81;21697;-72
2022/09/07 08:55:57;;;;;;;5.65;2.33;;;;;;;15.30;40.64;99980.91;1727257;82;21046;-73
2022/09/07 08:58:42;;;;;;;4.20;2.30;;;;;;;15.39;40.15;99978.63;1724297;82;21081;-72
2022/09/07 09:01:23;;;;;;;5.37;2.42;;;;;;;15.48;40.37;99977.31;1736459;82;21077;-72
2022/09/07 09:03:50;;;;;;;5.62;1.98;;;;;;;15.58;40.29;99973.31;1735357;82;21102;-72
2022/09/07 09:06:48;;;;;;;4.05;1.98;;;;;;;15.64;39.83;99971.65;1727524;83;21090;-73
2022/09/07 09:09:55;;;;;;;5.65;1.98;;;;;;;15.67;40.10;99965.39;1727253;82;21054;-72
2022/09/07 09:12:58;;;;;;;3.12;2.00;;;;;;;15.72;39.58;99960.29;1727726;82;21058;-72
2022/09/07 09:15:54;;;;;;;2.47;1.55;;;;;;;15.79;40.07;99957.69;1700678;83;21908;-71
2022/09/07 09:18:55;;;;;;;2.17;1.72;;;;;;;15.88;39.30;99956.34;1630371;88;21098;-71
2022/09/07 09:21:21;;;;;;;5.08;1.90;;;;;;;15.90;39.31;99954.49;1656175;85;21075;-71
2022/09/07 09:23:51;;;;;;;4.40;2.05;;;;;;;15.94;39.64;99955.17;1704186;83;21096;-72
2022/09/07 09:26:28;;;;;;;4.08;2.10;;;;;;;16.01;39.48;99948.63;1684172;84;21107;-71
2022/09/07 09:28:56;;;;;;;3.58;2.12;;;;;;;16.11;39.81;99945.88;1707448;82;22321;-71
2022/09/07 09:31:27;;;;;;;4.45;2.45;;;;;;;16.19;39.41;99944.97;1702441;83;21093;-71
2022/09/07 09:33:59;;;;;;;6.28;2.37;;;;;;;16.26;39.47;99933.66;1701600;84;21535;-72
2022/09/07 09:36:33;;;;;;;6.75;3.40;;;;;;;16.38;39.01;99929.88;1692108;83;21299;-71
2022/09/07 09:39:02;;;;;;;7.47;2.92;;;;;;;16.43;38.53;99935.69;1644447;86;21573;-71
2022/09/07 09:41:35;;;;;;;8.03;2.58;;;;;;;16.48;38.79;99927.08;1703896;82;21174;-71
2022/09/07 09:44:02;;;;;;;5.50;2.42;;;;;;;16.55;38.83;99926.27;1704798;83;21061;-71
2022/09/07 09:46:34;;;;;;;13.93;5.75;;;;;;;16.65;38.91;99916.08;1652068;84;21085;-72
2022/09/07 09:49:24;;;;;;;4.58;2.70;;;;;;;16.75;39.02;99917.23;1680027;84;21443;-72
2022/09/07 09:51:52;;;;;;;3.47;2.20;;;;;;;16.83;38.95;99909.72;1694374;84;21109;-72
2022/09/07 09:54:41;;;;;;;3.47;1.98;;;;;;;16.96;38.11;99908.06;1712263;82;20996;-72
2022/09/07 09:57:16;;;;;;;3.35;2.40;;;;;;;17.01;37.76;99912.55;1726618;82;21312;-71
2022/09/07 09:59:44;;;;;;;4.80;2.50;;;;;;;17.02;37.51;99906.36;1706492;83;21062;-70
2022/09/07 10:02:31;;;;;;;4.17;1.92;;;;;;;17.02;37.89;99910.77;1683399;83;21034;-71
2022/09/07 10:04:58;;;;;;;3.25;2.20;;;;;;;17.03;37.85;99903.27;1732277;81;21093;-73
2022/09/07 10:07:28;;;;;;;5.37;2.40;;;;;;;17.05;37.87;99900.92;1736148;82;21656;-72
2022/09/07 10:09:55;;;;;;;3.27;2.20;;;;;;;17.09;37.52;99898.48;1731963;82;20987;-72
2022/09/07 10:12:35;;;;;;;4.00;2.45;;;;;;;17.12;37.05;99894.83;1729900;82;21307;-72
2022/09/07 10:15:05;;;;;;;2.90;2.08;;;;;;;17.11;36.77;99891.83;1735385;82;21007;-72
2022/09/07 10:17:35;;;;;;;3.80;2.70;;;;;;;17.05;37.21;99897.45;1735104;82;20951;-73
2022/09/07 10:20:17;;;;;;;4.78;2.72;;;;;;;17.05;37.29;99883.84;1735101;82;21140;-72
2022/09/07 10:22:52;;;;;;;4.92;3.08;;;;;;;17.12;37.29;99881.22;1715180;82;21038;-73
2022/09/07 10:25:36;;;;;;;3.00;2.47;;;;;;;17.22;37.23;99884.95;1733186;82;21435;-73
2022/09/07 10:28:15;;;;;;;3.47;2.47;;;;;;;17.32;36.86;99882.61;1712911;82;21138;-73
2022/09/07 10:31:05;;;;;;;3.62;2.30;;;;;;;17.38;36.90;99878.76;1717133;82;21413;-72
2022/09/07 10:33:40;;;;;;;3.75;2.22;;;;;;;17.43;36.53;99880.13;1727594;82;22037;-73
2022/09/07 10:36:18;;;;;;;3.37;2.12;;;;;;;17.46;36.29;99877.31;1709029;82;21630;-71
2022/09/07 10:39:01;;;;;;;5.80;2.33;;;;;;;17.45;35.82;99868.20;1744054;82;21038;-71
2022/09/07 10:41:37;;;;;;;2.58;2.02;;;;;;;17.50;36.03;99875.34;1735255;82;21094;-74
2022/09/07 10:44:03;;;;;;;3.08;2.40;;;;;;;17.56;36.06;99872.33;1731986;82;21108;-73
2022/09/07 10:46:54;;;;;;;8.23;5.80;;;;;;;17.56;35.14;99869.70;1733800;82;21121;-74
2022/09/07 10:49:38;;;;;;;4.22;2.62;;;;;;;17.51;35.41;99871.77;1732658;82;20965;-71
2022/09/07 10:52:23;;;;;;;3.40;2.40;;;;;;;17.45;35.93;99867.73;1723469;81;21344;-73
2022/09/07 10:55:01;;;;;;;10.00;2.90;;;;;;;17.45;35.77;99858.53;1717617;82;21096;-72
2022/09/07 10:58:08;;;;;;;2.95;2.10;;;;;;;17.45;35.84;99852.43;1731491;82;21037;-73
2022/09/07 11:01:20;;;;;;;4.75;2.17;;;;;;;17.48;36.10;99850.92;1731036;82;21151;-71
2022/09/07 11:04:48;;;;;;;5.17;2.60;;;;;;;17.58;35.38;99855.98;1735424;82;22264;-73
2022/09/07 11:07:26;;;;;;;6.60;2.45;;;;;;;17.60;35.43;99844.02;1674670;82;21490;-74
2022/09/07 11:10:16;;;;;;;6.47;2.52;;;;;;;17.58;35.45;99841.02;1728783;82;21039;-74
2022/09/07 11:13:03;;;;;;;4.28;2.12;;;;;;;17.63;35.98;99838.09;1723746;82;21085;-70
2022/09/07 11:15:43;;;;;;;4.47;2.22;;;;;;;17.79;34.83;99840.13;1723206;82;21162;-72
2022/09/07 11:18:38;;;;;;;6.15;2.77;;;;;;;17.84;34.67;99837.20;1734613;82;21514;-71
2022/09/07 11:21:12;;;;;;;2.87;2.10;;;;;;;17.84;34.58;99849.89;1705441;82;21062;-72
2022/09/07 11:23:57;;;;;;;5.50;3.15;;;;;;;17.87;34.68;99832.59;1677743;83;21292;-73
2022/09/07 11:26:47;;;;;;;8.60;2.45;;;;;;;17.89;34.83;99832.50;1686571;82;21057;-71
2022/09/07 11:29:45;;;;;;;4.58;2.85;;;;;;;17.95;34.72;99823.36;1680457;84;21196;-72
2022/09/07 11:32:23;;;;;;;7.42;2.47;;;;;;;18.03;34.66;99819.26;1686690;85;22135;-72
2022/09/07 11:35:04;;;;;;;5.00;2.20;;;;;;;18.13;34.52;99820.82;1686275;85;21124;-72
2022/09/07 11:37:42;;;;;;;9.13;2.50;;;;;;;18.11;33.63;99817.44;1685394;85;21391;-72
2022/09/07 11:40:34;;;;;;;13.35;3.27;;;;;;;18.05;33.83;99807.31;1700867;82;22005;-74
2022/09/07 11:43:06;;;;;;;2.92;2.40;;;;;;;18.04;34.07;99806.94;1704214;82;21266;-71
2022/09/07 11:45:38;;;;;;;8.30;2.90;;;;;;;18.06;34.10;99809.00;1736598;82;20931;-71
2022/09/07 11:48:28;;;;;;;7.28;2.70;;;;;;;18.11;33.62;99804.28;1722191;82;21076;-73
2022/09/07 11:50:59;;;;;;;5.53;2.60;;;;;;;18.19;33.75;99800.64;1724492;82;21057;-75
2022/09/07 11:53:30;;;;;;;3.70;2.50;;;;;;;18.28;33.38;99797.88;1694513;82;21131;-76